createdAt,value
2023-03-06T00:04:39.198Z,68.294
2023-03-06T00:19:41.459Z,69.514
2023-03-06T00:34:43.716Z,69.527
2023-03-06T00:49:46.108Z,68.471
2023-03-06T01:04:48.360Z,66.118
2023-03-06T01:19:50.661Z,64.411
2023-03-06T01:34:53.015Z,63.2
2023-03-06T01:49:55.205Z,63.565
2023-03-06T02:04:57.544Z,63.968
2023-03-06T02:19:59.783Z,63.72
2023-03-06T02:35:02.223Z,64.258
2023-03-06T02:50:04.592Z,64.801
2023-03-06T03:05:06.951Z,64.276
2023-03-06T03:20:09.150Z,63.878
2023-03-06T03:35:11.689Z,63.52
2023-03-06T03:50:13.997Z,64.268
2023-03-06T04:05:16.281Z,65.015
2023-03-06T04:20:18.663Z,65.231
2023-03-06T04:35:21.072Z,66.229
2023-03-06T04:50:23.609Z,67.335
2023-03-06T05:05:25.971Z,64.598
2023-03-06T05:20:28.260Z,63.916
2023-03-06T05:35:30.759Z,65.955
2023-03-06T05:50:33.158Z,66.517
2023-03-06T06:05:35.505Z,65.436
2023-03-06T06:20:37.922Z,66.19
2023-03-06T06:35:40.528Z,65.279
2023-03-06T06:50:42.919Z,64.836
2023-03-06T07:05:45.224Z,67.013
2023-03-06T07:20:47.492Z,66.497
2023-03-06T07:35:49.828Z,66.75
2023-03-06T07:50:52.263Z,67.18
2023-03-06T08:05:54.608Z,66.502
2023-03-06T08:20:56.971Z,66.457
2023-03-06T08:36:01.351Z,66.682
2023-03-06T08:51:04.394Z,65.893
2023-03-06T09:06:06.761Z,65.826
2023-03-06T09:21:09.113Z,64.861
2023-03-06T09:36:11.520Z,64.838
2023-03-06T09:51:13.987Z,64.865
2023-03-06T10:06:16.339Z,65.251
2023-03-06T10:21:19.584Z,63.987
2023-03-06T10:36:22.046Z,64.257
2023-03-06T10:51:24.362Z,63.662
2023-03-06T11:06:26.768Z,63.801
2023-03-06T11:21:31.307Z,64.638
2023-03-06T11:36:34.048Z,64.45
2023-03-06T11:51:36.432Z,64.667
2023-03-06T12:06:38.784Z,64.128
2023-03-06T12:21:41.232Z,64.798
2023-03-06T12:36:43.605Z,64.973
2023-03-06T12:51:45.973Z,63.485
2023-03-06T13:06:50.610Z,63.351
2023-03-06T13:21:53.389Z,64.271
2023-03-06T13:36:55.682Z,66.061
2023-03-06T13:51:58.053Z,63.959
2023-03-06T14:07:00.425Z,64.971
2023-03-06T14:22:02.775Z,64.989
2023-03-06T14:37:05.412Z,65.62
2023-03-06T14:52:07.749Z,65.168
2023-03-06T15:07:10.253Z,64.639
2023-03-06T15:22:12.623Z,61.369
2023-03-06T15:37:14.961Z,57.355
2023-03-06T15:52:17.231Z,62.541
2023-03-06T16:07:20.000Z,63.708
2023-03-06T16:22:22.331Z,63.063
2023-03-06T16:37:24.644Z,61.477
2023-03-06T16:52:26.979Z,52.314
2023-03-06T17:07:29.398Z,51.746
2023-03-06T17:22:31.728Z,54.723
2023-03-06T17:37:34.106Z,56.193
2023-03-06T17:52:36.437Z,55.668
2023-03-06T18:07:38.827Z,55.442
2023-03-06T18:22:41.154Z,53.636
2023-03-06T18:37:43.573Z,53.601
2023-03-06T18:52:45.937Z,54.567
2023-03-06T19:07:48.236Z,52.901
2023-03-06T19:22:50.809Z,53.606
2023-03-06T19:37:53.335Z,52.08
2023-03-06T19:52:55.669Z,47.695
2023-03-06T20:07:57.950Z,51.401
2023-03-06T20:23:00.322Z,44.902
2023-03-06T20:38:02.748Z,50.502
2023-03-06T20:53:05.143Z,48.423
2023-03-06T21:08:07.519Z,50.362
2023-03-06T21:23:10.120Z,53.144
2023-03-06T21:38:12.492Z,52.329
2023-03-06T21:53:14.783Z,51.023
2023-03-06T22:08:17.201Z,48.915
2023-03-06T22:23:19.779Z,50.684
2023-03-06T22:38:22.121Z,48.389
2023-03-06T22:53:24.621Z,50.187
2023-03-06T23:08:26.949Z,48.287
2023-03-06T23:23:29.351Z,51.389
2023-03-06T23:38:31.707Z,51.29
2023-03-06T23:53:34.662Z,49.937
